Alert, Canada
Current Conditions -  °F | °C
As of 11:00 PM on Saturday 24 Jan 2015 (Local Time) from CWEU Reporting Station
Clear Clear  
Wind Chill: -45°   Ceiling: Unl
Heat Index: -18°   Visibility: 15mi
Dew Point: -29°   Wind: 18mph
Humidity: 58%   Direction: 10°N
Pressure: 29.69"   Gusts: NA
Location:  82.47°N, 62.5°W
Report Text: CWEU 250400Z 01016KT 15SM SKC M28/M34 A2969 RMK SLP058
Loading
Personal Weather Stations






























Interactive Weather Map New forecast layout! Learn more

10-Day Weather Forecast

Advertisements
Track Severe Weather on mobile